Time;durP1;ratioP1;P1;durP2;ratioP2;P2;SDS_P1;SDS_P2;PMS_P1;PMS_P2;Temp;Humidity;BMP_temperature;BMP_pressure;BME280_temperature;BME280_humidity;BME280_pressure;Samples;Min_cycle;Max_cycle;Signal;HPM_P1;HPM_P2
2023/11/24 00:00:37;;;;;;;2.05;0.25;;;24.00;45.50;24.60;102155.00;;;;5008775;28;20071;-47
2023/11/24 00:03:03;;;;;;;1.25;0.20;;;24.00;45.50;24.60;102147.00;;;;5018287;28;20091;-54
2023/11/24 00:05:29;;;;;;;0.88;0.20;;;24.00;45.50;24.60;102136.00;;;;5020254;28;20115;-55
2023/11/24 00:07:55;;;;;;;1.73;0.28;;;24.00;45.50;24.60;102133.00;;;;5007226;28;20037;-53
2023/11/24 00:10:21;;;;;;;0.65;0.20;;;24.00;45.50;24.60;102134.00;;;;5017515;28;20447;-53
2023/11/24 00:12:47;;;;;;;1.17;0.17;;;24.00;45.50;24.60;102132.00;;;;5023589;28;20496;-53
2023/11/24 00:15:13;;;;;;;0.30;0.10;;;24.00;45.50;24.60;102139.00;;;;5017395;28;20045;-57
2023/11/24 00:17:39;;;;;;;0.93;0.10;;;24.00;45.50;24.50;102140.00;;;;5007598;28;20141;-52
2023/11/24 00:20:08;;;;;;;0.40;0.32;;;24.00;45.50;24.60;102132.00;;;;5016219;28;20049;-55
2023/11/24 00:22:34;;;;;;;1.00;0.47;;;24.00;45.60;24.60;102125.00;;;;5017781;28;20065;-52
2023/11/24 00:25:00;;;;;;;1.05;0.10;;;24.00;45.50;24.60;102111.00;;;;5016968;28;20037;-50
2023/11/24 00:27:26;;;;;;;1.40;0.10;;;24.10;45.50;24.60;102097.00;;;;5017593;28;20048;-49
2023/11/24 00:29:52;;;;;;;1.05;0.20;;;24.00;45.50;24.60;102104.00;;;;5014338;28;20060;-49
2023/11/24 00:32:19;;;;;;;1.45;0.10;;;24.00;45.50;24.60;102102.00;;;;5015793;28;20041;-48
2023/11/24 00:34:45;;;;;;;3.05;0.30;;;24.00;45.60;24.60;102098.00;;;;5040151;28;20075;-52
2023/11/24 00:37:12;;;;;;;1.17;0.20;;;24.00;45.60;24.60;102085.00;;;;5016442;28;20609;-47
2023/11/24 00:39:38;;;;;;;2.65;0.20;;;24.10;45.60;24.60;102072.00;;;;5023404;28;20107;-47
2023/11/24 00:42:05;;;;;;;0.47;0.10;;;24.10;45.60;24.60;102084.00;;;;5013851;28;20441;-47
2023/11/24 00:44:31;;;;;;;1.88;0.65;;;24.10;45.60;24.60;102079.00;;;;5015885;28;20513;-54
2023/11/24 00:46:57;;;;;;;1.05;0.20;;;24.00;45.60;24.60;102069.00;;;;5013098;28;20129;-51
2023/11/24 00:49:23;;;;;;;2.47;0.60;;;24.10;45.60;24.60;102066.00;;;;5031305;28;20098;-52
2023/11/24 00:51:49;;;;;;;3.30;0.30;;;24.00;45.50;24.60;102073.00;;;;5015480;28;20060;-51
2023/11/24 00:54:16;;;;;;;1.55;0.20;;;24.10;45.60;24.60;102072.00;;;;5015633;28;20540;-50
2023/11/24 00:56:41;;;;;;;1.48;0.55;;;24.10;45.60;24.60;102067.00;;;;4998262;28;20056;-54
2023/11/24 00:59:07;;;;;;;1.88;0.40;;;24.00;45.50;24.60;102071.00;;;;5015986;28;22299;-50
2023/11/24 01:01:33;;;;;;;1.95;0.15;;;24.00;45.50;24.60;102073.00;;;;5016481;28;20040;-55
2023/11/24 01:04:01;;;;;;;1.33;0.20;;;24.00;45.50;24.60;102070.00;;;;5018304;28;20041;-53
2023/11/24 01:06:27;;;;;;;4.60;0.35;;;24.00;45.60;24.60;102062.00;;;;5016412;28;20045;-51
2023/11/24 01:08:52;;;;;;;3.17;0.35;;;24.10;45.60;24.60;102070.00;;;;5016451;28;20038;-52
2023/11/24 01:11:18;;;;;;;1.33;0.57;;;24.00;45.60;24.60;102070.00;;;;4998000;28;20061;-51
2023/11/24 01:13:45;;;;;;;0.90;0.35;;;24.10;45.60;24.60;102071.00;;;;4998606;28;20095;-53
2023/11/24 01:16:12;;;;;;;3.30;0.40;;;24.00;45.60;24.60;102076.00;;;;5038778;28;20359;-51
2023/11/24 01:18:38;;;;;;;1.65;0.20;;;24.00;45.60;24.60;102068.00;;;;5013802;28;20657;-54
2023/11/24 01:21:06;;;;;;;1.10;0.10;;;24.10;45.60;24.60;102072.00;;;;5006145;28;20650;-51
2023/11/24 01:23:35;;;;;;;0.80;0.20;;;24.00;45.60;24.50;102067.00;;;;4999325;28;20049;-51
2023/11/24 01:26:03;;;;;;;0.88;0.30;;;24.00;45.80;24.50;102072.00;;;;5007099;28;20041;-50
2023/11/24 01:28:29;;;;;;;2.35;0.10;;;23.90;45.80;24.40;102067.00;;;;5015432;28;20042;-53
2023/11/24 01:30:55;;;;;;;1.88;0.20;;;23.90;45.90;24.40;102061.00;;;;5015693;28;20044;-51
2023/11/24 01:33:21;;;;;;;2.45;0.22;;;23.80;46.00;24.40;102052.00;;;;5015589;28;20541;-54
2023/11/24 01:35:49;;;;;;;2.80;0.17;;;23.80;46.10;24.30;102047.00;;;;5015393;28;20034;-50
2023/11/24 01:38:15;;;;;;;0.32;0.32;;;23.70;46.10;24.30;102045.00;;;;5007384;28;20041;-54
2023/11/24 01:40:41;;;;;;;0.82;0.10;;;23.70;46.20;24.20;102042.00;;;;5014894;28;20038;-52
2023/11/24 01:43:07;;;;;;;1.98;0.10;;;23.70;46.30;24.20;102037.00;;;;5014382;28;20033;-52
2023/11/24 01:45:33;;;;;;;1.00;0.20;;;23.60;46.30;24.20;102032.00;;;;4997358;28;20061;-53
2023/11/24 01:47:59;;;;;;;1.23;0.10;;;23.60;46.40;24.10;102040.00;;;;5014282;28;20045;-47
2023/11/24 01:50:25;;;;;;;0.63;0.10;;;23.60;46.40;24.10;102038.00;;;;5016126;28;20051;-48
2023/11/24 01:52:52;;;;;;;1.45;0.30;;;23.50;46.50;24.10;102029.00;;;;5015193;28;20445;-50
2023/11/24 01:55:19;;;;;;;0.85;0.20;;;23.50;47.20;24.00;102033.00;;;;5013906;28;20053;-49
2023/11/24 01:57:47;;;;;;;0.82;0.10;;;23.50;46.70;24.00;102034.00;;;;4999874;28;20080;-48
2023/11/24 02:00:13;;;;;;;2.63;0.85;;;23.50;46.80;24.00;102029.00;;;;5013712;28;20394;-48
2023/11/24 02:02:41;;;;;;;1.90;0.10;;;23.40;46.80;23.90;102029.00;;;;5014306;28;20037;-48
2023/11/24 02:05:08;;;;;;;1.40;0.15;;;23.40;46.90;23.90;102038.00;;;;5005593;28;20039;-52
2023/11/24 02:07:35;;;;;;;1.98;0.10;;;23.40;47.00;23.90;102048.00;;;;4996379;28;20854;-50
2023/11/24 02:10:02;;;;;;;0.80;0.20;;;23.40;47.20;23.90;102049.00;;;;5016281;28;20526;-56
2023/11/24 02:12:28;;;;;;;1.75;0.20;;;23.30;47.30;23.80;102042.00;;;;5012674;28;20046;-52
2023/11/24 02:14:55;;;;;;;1.75;0.20;;;23.30;47.30;23.80;102036.00;;;;5015821;28;20768;-54
2023/11/24 02:17:21;;;;;;;0.30;0.15;;;23.30;47.50;23.80;102032.00;;;;4999464;28;20065;-53
2023/11/24 02:19:47;;;;;;;1.73;0.10;;;23.30;47.50;23.80;102030.00;;;;5015732;28;20124;-50
2023/11/24 02:22:13;;;;;;;2.15;0.10;;;23.20;47.60;23.80;102030.00;;;;4998211;28;20120;-52
2023/11/24 02:24:39;;;;;;;0.20;0.20;;;23.20;47.60;23.80;102025.00;;;;5005722;28;20030;-49
2023/11/24 02:27:05;;;;;;;4.15;1.20;;;23.20;47.70;23.70;102024.00;;;;5013538;28;20906;-47
2023/11/24 02:29:32;;;;;;;0.60;0.10;;;23.20;47.70;23.70;102016.00;;;;5015558;28;20041;-49
2023/11/24 02:31:58;;;;;;;1.65;0.10;;;23.10;48.50;23.70;102003.00;;;;5015928;28;20056;-48
2023/11/24 02:34:24;;;;;;;1.23;0.10;;;23.10;47.80;23.70;102008.00;;;;4983611;28;20038;-52
2023/11/24 02:36:50;;;;;;;1.85;0.32;;;23.10;47.90;23.70;101986.00;;;;5014865;28;20091;-47
2023/11/24 02:39:16;;;;;;;1.00;0.20;;;23.10;48.00;23.60;101991.00;;;;5014017;28;20055;-49
2023/11/24 02:41:42;;;;;;;1.70;0.20;;;23.10;48.00;23.60;101978.00;;;;5004759;28;20712;-51
2023/11/24 02:44:08;;;;;;;1.92;0.10;;;23.10;48.00;23.60;101981.00;;;;5004578;28;20060;-50
2023/11/24 02:46:35;;;;;;;0.82;0.10;;;23.10;48.00;23.60;101965.00;;;;5016597;28;20045;-56
2023/11/24 02:49:01;;;;;;;1.95;0.10;;;23.00;48.10;23.60;101964.00;;;;4980152;28;20046;-53
2023/11/24 02:51:28;;;;;;;1.70;0.10;;;23.00;48.10;23.60;101959.00;;;;5014289;28;20496;-52
2023/11/24 02:53:54;;;;;;;0.47;0.10;;;23.00;48.10;23.60;101950.00;;;;5021513;28;20049;-51
2023/11/24 02:56:20;;;;;;;2.38;0.95;;;23.00;48.10;23.60;101950.00;;;;5015173;28;20521;-51
2023/11/24 02:58:46;;;;;;;1.10;0.28;;;23.00;48.10;23.60;101940.00;;;;5012860;28;20036;-53
2023/11/24 03:01:12;;;;;;;0.35;0.10;;;22.90;48.10;23.60;101935.00;;;;5017608;28;20033;-51
2023/11/24 03:03:39;;;;;;;1.73;0.20;;;23.00;48.20;23.50;101936.00;;;;5014743;28;20045;-54
2023/11/24 03:06:05;;;;;;;1.67;0.10;;;22.90;48.30;23.50;101941.00;;;;5015558;28;20037;-56
2023/11/24 03:08:34;;;;;;;0.45;0.10;;;22.90;48.30;23.50;101934.00;;;;5015659;28;20036;-55
2023/11/24 03:11:05;;;;;;;1.30;0.10;;;22.90;48.20;23.50;101930.00;;;;5015352;28;20437;-53
2023/11/24 03:13:31;;;;;;;3.13;0.13;;;22.90;48.20;23.50;101930.00;;;;5014711;28;20406;-57
2023/11/24 03:15:57;;;;;;;1.75;0.20;;;22.90;48.30;23.50;101931.00;;;;5012855;28;20065;-52
2023/11/24 03:18:23;;;;;;;1.70;0.20;;;22.90;48.30;23.50;101922.00;;;;4996869;28;20770;-53
2023/11/24 03:20:51;;;;;;;4.72;0.65;;;22.90;48.30;23.50;101932.00;;;;5014135;28;20538;-52
2023/11/24 03:23:18;;;;;;;3.13;0.30;;;22.90;48.30;23.50;101915.00;;;;5013483;28;20036;-53
2023/11/24 03:25:44;;;;;;;2.45;0.10;;;22.90;48.40;23.50;101922.00;;;;5013292;28;20041;-52
2023/11/24 03:28:10;;;;;;;1.95;0.10;;;22.90;48.50;23.50;101920.00;;;;5003339;28;20414;-55
2023/11/24 03:30:35;;;;;;;1.15;0.10;;;22.90;48.40;23.50;101915.00;;;;5017522;28;20080;-55
2023/11/24 03:33:02;;;;;;;1.52;0.25;;;22.80;49.00;23.50;101914.00;;;;5018637;28;20048;-53
2023/11/24 03:35:27;;;;;;;2.00;0.10;;;22.80;48.40;23.40;101914.00;;;;5019507;28;20042;-55
2023/11/24 03:37:54;;;;;;;3.25;0.73;;;22.80;48.60;23.40;101903.00;;;;5018609;28;20054;-57
2023/11/24 03:40:20;;;;;;;1.15;0.20;;;22.80;48.50;23.40;101890.00;;;;5020188;28;20516;-52
2023/11/24 03:42:46;;;;;;;1.75;0.17;;;22.80;48.60;23.40;101887.00;;;;5016488;28;20103;-56
2023/11/24 03:45:12;;;;;;;2.00;0.28;;;22.80;48.60;23.40;101890.00;;;;5019773;28;20049;-55
2023/11/24 03:47:39;;;;;;;1.55;0.57;;;22.70;48.50;23.40;101886.00;;;;5016341;28;20111;-55
2023/11/24 03:50:05;;;;;;;0.90;0.35;;;22.80;48.70;23.40;101884.00;;;;5016872;28;21817;-54
2023/11/24 03:52:33;;;;;;;1.00;0.20;;;22.80;48.70;23.40;101876.00;;;;5017137;28;20045;-56
2023/11/24 03:55:00;;;;;;;1.40;0.10;;;22.80;48.70;23.40;101881.00;;;;5019083;28;20069;-53
2023/11/24 03:57:26;;;;;;;1.38;0.20;;;22.80;48.70;23.40;101864.00;;;;4984802;28;20450;-56
2023/11/24 03:59:52;;;;;;;1.08;0.10;;;22.80;48.80;23.40;101874.00;;;;5017988;28;20068;-51
2023/11/24 04:02:18;;;;;;;1.30;0.10;;;22.70;48.70;23.40;101879.00;;;;5009042;28;20397;-56
2023/11/24 04:04:46;;;;;;;1.88;0.10;;;22.80;48.90;23.40;101870.00;;;;4999959;28;20033;-50
2023/11/24 04:07:16;;;;;;;0.68;0.10;;;22.70;48.90;23.40;101856.00;;;;5002170;28;20720;-50
2023/11/24 04:09:44;;;;;;;0.45;0.10;;;22.70;48.90;23.40;101858.00;;;;5016984;28;20038;-48
2023/11/24 04:12:10;;;;;;;1.08;0.10;;;22.70;48.90;23.40;101861.00;;;;5016537;28;20159;-51
2023/11/24 04:14:36;;;;;;;0.15;0.10;;;22.70;49.00;23.40;101861.00;;;;5018936;28;20057;-50
2023/11/24 04:17:02;;;;;;;2.78;0.10;;;22.70;49.00;23.40;101862.00;;;;4991846;28;20041;-50
2023/11/24 04:19:28;;;;;;;1.33;0.10;;;22.70;49.00;23.30;101861.00;;;;5031906;28;20429;-55
2023/11/24 04:21:55;;;;;;;1.08;0.10;;;22.70;49.00;23.40;101869.00;;;;4985394;28;20141;-48
2023/11/24 04:24:23;;;;;;;2.20;0.13;;;22.70;49.10;23.40;101877.00;;;;5000212;28;20064;-56
2023/11/24 04:26:49;;;;;;;0.82;0.08;;;22.70;49.00;23.40;101883.00;;;;5016433;28;20033;-54
2023/11/24 04:29:15;;;;;;;1.52;0.20;;;22.70;49.00;23.30;101874.00;;;;5018178;28;20061;-54
2023/11/24 04:31:41;;;;;;;1.00;0.10;;;22.70;49.10;23.30;101878.00;;;;5014949;28;20037;-53
2023/11/24 04:34:07;;;;;;;0.90;0.10;;;22.70;49.00;23.30;101873.00;;;;5016989;28;20037;-55
2023/11/24 04:36:33;;;;;;;1.58;0.20;;;22.70;49.00;23.30;101860.00;;;;5016390;28;20061;-53
2023/11/24 04:38:59;;;;;;;5.45;0.88;;;22.70;49.00;23.30;101858.00;;;;5016525;28;20120;-53
2023/11/24 04:41:25;;;;;;;0.88;0.10;;;22.70;49.10;23.30;101860.00;;;;5016123;28;20029;-53
2023/11/24 04:43:51;;;;;;;2.05;0.10;;;22.70;49.10;23.30;101857.00;;;;5017073;28;20037;-56
2023/11/24 04:46:17;;;;;;;1.30;0.10;;;22.60;49.10;23.30;101851.00;;;;5019869;28;20055;-52
2023/11/24 04:48:43;;;;;;;1.80;0.10;;;22.70;49.10;23.30;101843.00;;;;5018147;28;20103;-54
2023/11/24 04:51:09;;;;;;;0.75;0.10;;;22.70;49.20;23.30;101844.00;;;;5017552;28;20044;-50
2023/11/24 04:53:35;;;;;;;1.92;0.10;;;22.60;49.20;23.30;101847.00;;;;5006522;28;20115;-53
2023/11/24 04:56:02;;;;;;;0.10;0.10;;;22.60;49.20;23.30;101837.00;;;;5015476;28;20762;-52
2023/11/24 04:58:29;;;;;;;3.30;0.30;;;22.60;49.20;23.30;101835.00;;;;5017244;28;20049;-52
2023/11/24 05:00:55;;;;;;;1.35;0.10;;;22.60;49.20;23.30;101829.00;;;;5017404;28;20108;-52
2023/11/24 05:03:21;;;;;;;2.17;0.10;;;22.70;49.20;23.30;101824.00;;;;5016741;28;20179;-52
2023/11/24 05:05:47;;;;;;;0.60;0.10;;;22.60;49.20;23.30;101824.00;;;;5018585;28;20044;-57
2023/11/24 05:08:14;;;;;;;2.90;0.10;;;22.60;49.20;23.30;101823.00;;;;5018509;28;20037;-53
2023/11/24 05:10:40;;;;;;;1.33;0.20;;;22.60;49.20;23.30;101823.00;;;;5019201;28;20042;-51
2023/11/24 05:13:07;;;;;;;3.15;0.10;;;22.60;49.20;23.30;101817.00;;;;5014385;28;20588;-53
2023/11/24 05:15:34;;;;;;;1.60;0.65;;;22.60;49.90;23.30;101816.00;;;;5016573;28;20477;-52
2023/11/24 05:18:03;;;;;;;1.17;0.20;;;22.60;49.30;23.30;101814.00;;;;5013972;28;20037;-53
2023/11/24 05:20:29;;;;;;;1.23;0.05;;;22.60;49.30;23.30;101811.00;;;;5001722;28;20095;-50
2023/11/24 05:22:55;;;;;;;0.40;0.10;;;22.60;49.30;23.30;101801.00;;;;4999627;28;20029;-53
2023/11/24 05:25:21;;;;;;;0.30;0.10;;;22.60;49.30;23.30;101793.00;;;;5019009;28;20037;-53
2023/11/24 05:27:47;;;;;;;0.63;0.10;;;22.60;49.30;23.30;101792.00;;;;4999701;28;20060;-53
2023/11/24 05:30:13;;;;;;;0.35;0.20;;;22.60;49.30;23.30;101791.00;;;;5016891;28;20072;-50
2023/11/24 05:32:39;;;;;;;0.25;0.10;;;22.60;49.30;23.30;101794.00;;;;5016785;28;20645;-51
2023/11/24 05:35:05;;;;;;;0.75;0.10;;;22.60;49.30;23.30;101795.00;;;;5015782;28;20041;-53
2023/11/24 05:37:32;;;;;;;0.55;0.10;;;22.60;49.30;23.30;101796.00;;;;5016453;28;20071;-51
2023/11/24 05:39:58;;;;;;;2.15;0.20;;;22.60;49.30;23.30;101798.00;;;;5016100;28;20026;-54
2023/11/24 05:42:23;;;;;;;3.10;0.10;;;22.60;49.30;23.30;101789.00;;;;5018108;28;20124;-52
2023/11/24 05:44:50;;;;;;;0.73;0.10;;;22.60;49.30;23.30;101782.00;;;;5015824;28;20048;-49
2023/11/24 05:47:15;;;;;;;0.88;0.30;;;22.60;49.30;23.30;101783.00;;;;5016852;28;20494;-49
2023/11/24 05:49:43;;;;;;;1.33;0.10;;;22.60;49.30;23.30;101786.00;;;;5000051;28;20080;-54
2023/11/24 05:52:15;;;;;;;2.22;0.15;;;22.60;49.30;23.30;101789.00;;;;4996851;28;20049;-50
2023/11/24 05:54:42;;;;;;;1.05;0.10;;;22.60;49.30;23.30;101775.00;;;;5006053;28;20045;-47
2023/11/24 05:57:08;;;;;;;0.43;0.10;;;22.60;49.30;23.30;101775.00;;;;5013134;28;20037;-52
2023/11/24 05:59:35;;;;;;;0.73;0.10;;;22.60;49.40;23.30;101775.00;;;;5020869;28;20030;-49
2023/11/24 06:02:03;;;;;;;0.57;0.10;;;22.60;49.30;23.30;101772.00;;;;5014870;28;20031;-52
2023/11/24 06:04:29;;;;;;;0.20;0.10;;;22.60;49.40;23.30;101779.00;;;;5015518;28;21742;-50
2023/11/24 06:06:55;;;;;;;4.20;0.10;;;22.60;49.40;23.30;101770.00;;;;5014571;28;20045;-49
2023/11/24 06:09:21;;;;;;;0.25;0.10;;;22.60;49.40;23.30;101763.00;;;;4997814;28;20045;-49
2023/11/24 06:11:47;;;;;;;0.55;0.20;;;22.60;49.40;23.30;101768.00;;;;5012894;28;20375;-47
2023/11/24 06:14:13;;;;;;;0.30;0.10;;;22.60;49.40;23.30;101782.00;;;;5015200;28;20041;-49
2023/11/24 06:16:39;;;;;;;1.40;0.30;;;22.60;49.40;23.30;101785.00;;;;5015374;28;20037;-51
2023/11/24 06:19:05;;;;;;;0.85;0.20;;;22.60;49.40;23.30;101792.00;;;;4996240;28;20138;-49
2023/11/24 06:21:31;;;;;;;0.70;0.10;;;22.60;49.40;23.30;101785.00;;;;5015713;28;20037;-48
2023/11/24 06:23:57;;;;;;;1.23;0.20;;;22.60;49.40;23.30;101782.00;;;;5014495;28;20052;-52
2023/11/24 06:26:23;;;;;;;1.98;0.10;;;22.60;49.40;23.30;101784.00;;;;5014635;28;20112;-57
2023/11/24 06:28:49;;;;;;;1.75;0.20;;;22.60;49.40;23.30;101788.00;;;;5014865;28;20795;-55
2023/11/24 06:31:15;;;;;;;0.50;0.20;;;22.60;49.40;23.30;101784.00;;;;4997376;28;20052;-50
2023/11/24 06:33:42;;;;;;;1.88;0.20;;;22.60;50.00;23.30;101789.00;;;;5014679;28;20037;-52
2023/11/24 06:36:10;;;;;;;0.30;0.20;;;22.60;49.40;23.30;101785.00;;;;5014894;28;20064;-52
2023/11/24 06:38:36;;;;;;;2.30;1.05;;;22.60;49.50;23.30;101783.00;;;;5003802;28;20126;-53
2023/11/24 06:41:02;;;;;;;1.10;0.20;;;22.60;49.50;23.30;101784.00;;;;5014817;28;20643;-53
2023/11/24 06:43:28;;;;;;;0.38;0.10;;;22.50;49.40;23.30;101791.00;;;;5012348;28;20517;-55
2023/11/24 06:45:54;;;;;;;1.13;0.20;;;22.60;49.50;23.30;101800.00;;;;5013927;28;20038;-54
2023/11/24 06:48:20;;;;;;;1.38;0.60;;;22.60;49.50;23.30;101796.00;;;;5013079;28;20080;-53
2023/11/24 06:50:46;;;;;;;1.25;0.20;;;22.60;49.50;23.30;101783.00;;;;5013298;28;20243;-54
2023/11/24 06:53:13;;;;;;;1.65;0.30;;;22.60;49.50;23.30;101778.00;;;;4997950;28;20077;-53
2023/11/24 06:55:39;;;;;;;1.40;0.30;;;22.60;49.50;23.30;101763.00;;;;5014284;28;20827;-57
2023/11/24 06:58:07;;;;;;;1.20;0.32;;;22.60;49.50;23.30;101776.00;;;;4996272;28;20124;-50
2023/11/24 07:00:34;;;;;;;0.40;0.20;;;22.60;49.50;23.20;101769.00;;;;5012491;28;20037;-51
2023/11/24 07:03:00;;;;;;;1.02;0.30;;;22.60;49.50;23.20;101773.00;;;;5013676;28;20095;-49
2023/11/24 07:05:26;;;;;;;1.13;0.20;;;22.60;49.50;23.20;101777.00;;;;5013533;28;20037;-54
2023/11/24 07:07:52;;;;;;;1.55;0.32;;;22.50;49.50;23.20;101783.00;;;;5013663;28;20061;-49
2023/11/24 07:10:20;;;;;;;2.08;0.40;;;22.50;49.50;23.20;101785.00;;;;5014262;28;20371;-50
2023/11/24 07:12:46;;;;;;;0.95;0.38;;;22.60;49.50;23.30;101776.00;;;;5013953;28;20041;-51
2023/11/24 07:15:12;;;;;;;1.15;0.15;;;22.60;49.60;23.30;101776.00;;;;5014072;28;20037;-53
2023/11/24 07:17:39;;;;;;;1.23;0.75;;;22.60;49.60;23.30;101780.00;;;;5013229;28;20045;-51
2023/11/24 07:20:11;;;;;;;1.48;0.20;;;22.60;49.60;23.30;101792.00;;;;5013502;28;20025;-52
2023/11/24 07:22:41;;;;;;;0.95;0.20;;;22.50;49.60;23.30;101788.00;;;;5014789;28;20034;-52
2023/11/24 07:25:08;;;;;;;0.30;0.20;;;22.60;49.60;23.30;101782.00;;;;5012524;28;20038;-47
2023/11/24 07:27:34;;;;;;;2.22;0.43;;;22.60;49.50;23.30;101782.00;;;;5012009;28;20034;-48
2023/11/24 07:30:00;;;;;;;1.77;0.43;;;22.60;49.50;23.30;101785.00;;;;5003539;28;20092;-49
2023/11/24 07:32:28;;;;;;;5.93;0.90;;;22.60;49.50;23.30;101797.00;;;;5012501;28;20409;-46
2023/11/24 07:34:55;;;;;;;4.38;0.35;;;22.50;49.50;23.30;101801.00;;;;5014217;28;20073;-46
2023/11/24 07:37:21;;;;;;;0.75;0.10;;;22.60;49.50;23.30;101804.00;;;;5013767;28;20041;-48
2023/11/24 07:39:48;;;;;;;1.45;0.40;;;22.60;49.50;23.20;101814.00;;;;5014762;28;20076;-47
2023/11/24 07:42:13;;;;;;;2.40;0.20;;;22.60;49.50;23.20;101813.00;;;;5014002;28;20068;-50
2023/11/24 07:44:42;;;;;;;1.95;0.20;;;22.60;49.40;23.20;101810.00;;;;5012793;28;20046;-54
2023/11/24 07:47:09;;;;;;;1.55;0.20;;;22.50;49.40;23.20;101811.00;;;;5013918;28;20091;-49
2023/11/24 07:49:35;;;;;;;7.93;0.40;;;22.60;49.70;23.20;101815.00;;;;5015563;28;20033;-54
2023/11/24 07:52:01;;;;;;;1.38;0.25;;;22.50;49.30;23.20;101810.00;;;;5005093;28;20049;-50
2023/11/24 07:54:27;;;;;;;1.25;0.47;;;22.50;49.30;23.20;101817.00;;;;5012096;28;20453;-51
2023/11/24 07:56:53;;;;;;;3.75;0.50;;;22.50;49.20;23.20;101805.00;;;;4995675;28;20029;-52
2023/11/24 07:59:18;;;;;;;1.02;0.20;;;22.50;49.30;23.30;101821.00;;;;5013075;28;20034;-50
2023/11/24 08:01:45;;;;;;;3.60;1.17;;;22.50;49.20;23.20;101815.00;;;;5014068;28;20389;-51
2023/11/24 08:04:11;;;;;;;1.10;0.20;;;22.50;49.20;23.20;101810.00;;;;5014167;28;20038;-53
2023/11/24 08:06:38;;;;;;;4.85;1.27;;;22.50;49.30;23.20;101813.00;;;;5013696;28;20030;-55
2023/11/24 08:09:07;;;;;;;0.88;0.40;;;22.50;49.20;23.20;101820.00;;;;5012177;28;20088;-51
2023/11/24 08:11:34;;;;;;;2.97;0.85;;;22.50;49.10;23.20;101819.00;;;;5015320;28;20069;-51
2023/11/24 08:14:00;;;;;;;3.92;0.28;;;22.50;49.00;23.20;101823.00;;;;5016436;28;20038;-55
2023/11/24 08:16:26;;;;;;;2.65;0.20;;;22.50;49.10;23.20;101821.00;;;;5017686;28;20099;-52
2023/11/24 08:18:52;;;;;;;2.25;0.20;;;22.50;48.90;23.20;101826.00;;;;5018365;28;20038;-51
2023/11/24 08:21:19;;;;;;;3.33;0.80;;;22.50;49.00;23.20;101823.00;;;;5018156;28;20039;-50
2023/11/24 08:23:46;;;;;;;1.95;0.22;;;22.50;48.90;23.20;101820.00;;;;5000865;28;20073;-52
2023/11/24 08:26:17;;;;;;;1.58;0.40;;;22.50;48.90;23.20;101812.00;;;;5000949;28;20478;-48
2023/11/24 08:28:44;;;;;;;1.20;0.35;;;22.50;48.80;23.20;101814.00;;;;5017329;28;20057;-51
2023/11/24 08:31:21;;;;;;;2.95;0.30;;;22.50;48.70;23.20;101819.00;;;;5015595;28;20030;-49
2023/11/24 08:34:08;;;;;;;4.68;0.60;;;22.50;48.60;23.20;101807.00;;;;5016404;28;20034;-48
2023/11/24 08:36:35;;;;;;;1.77;0.10;;;22.50;48.70;23.20;101808.00;;;;5017019;28;20526;-48
2023/11/24 08:39:03;;;;;;;1.40;0.20;;;22.50;48.60;23.20;101813.00;;;;4996834;28;20036;-49
2023/11/24 08:41:29;;;;;;;0.82;0.10;;;22.50;48.60;23.20;101815.00;;;;5017000;28;20037;-49
2023/11/24 08:43:55;;;;;;;2.60;0.30;;;22.50;48.60;23.20;101806.00;;;;5029406;28;20041;-46
2023/11/24 08:46:22;;;;;;;5.35;0.43;;;22.50;48.70;23.30;101810.00;;;;5017506;28;20034;-45
2023/11/24 08:48:48;;;;;;;10.00;0.95;;;22.50;48.80;23.30;101797.00;;;;5005346;28;20033;-42
2023/11/24 08:51:14;;;;;;;2.78;0.20;;;22.60;48.80;23.40;101807.00;;;;5016773;28;20904;-46
2023/11/24 08:53:42;;;;;;;1.95;0.20;;;22.60;48.80;23.40;101806.00;;;;5013862;28;20132;-43
2023/11/24 08:56:10;;;;;;;5.75;0.55;;;22.70;48.80;23.50;101801.00;;;;5016291;28;20456;-44
2023/11/24 08:58:37;;;;;;;1.10;0.28;;;22.80;48.80;23.60;101792.00;;;;5014274;28;20037;-42
2023/11/24 09:01:05;;;;;;;5.03;0.43;;;22.80;48.60;23.70;101800.00;;;;5015458;28;20067;-43
2023/11/24 09:03:31;;;;;;;1.65;0.20;;;22.90;48.60;23.80;101799.00;;;;5016329;28;20099;-40
2023/11/24 09:05:57;;;;;;;1.67;0.40;;;22.90;48.40;23.80;101789.00;;;;5017497;28;20033;-40
2023/11/24 09:08:24;;;;;;;1.38;0.28;;;23.10;48.30;23.90;101800.00;;;;5018161;28;20075;-40
2023/11/24 09:10:50;;;;;;;1.75;1.17;;;23.10;48.10;24.00;101793.00;;;;5016056;28;20042;-40
2023/11/24 09:13:16;;;;;;;0.75;0.15;;;23.20;48.00;24.10;101797.00;;;;5015851;28;20562;-42
2023/11/24 09:15:43;;;;;;;1.80;0.50;;;23.30;47.90;24.10;101788.00;;;;5023170;28;20545;-41
2023/11/24 09:18:09;;;;;;;4.88;0.40;;;23.30;47.70;24.20;101797.00;;;;5016959;28;20604;-42
2023/11/24 09:20:37;;;;;;;2.45;0.30;;;23.40;47.70;24.20;101791.00;;;;5022778;28;20029;-41
2023/11/24 09:23:04;;;;;;;1.52;0.20;;;23.50;47.60;24.30;101786.00;;;;5015678;28;20034;-40
2023/11/24 09:25:34;;;;;;;3.80;0.30;;;23.50;47.50;24.30;101785.00;;;;5016140;28;20662;-41
2023/11/24 09:28:00;;;;;;;3.45;0.22;;;23.50;47.30;24.40;101779.00;;;;5017328;28;20538;-42
2023/11/24 09:30:27;;;;;;;3.70;0.43;;;23.50;47.20;24.40;101784.00;;;;5015933;28;20045;-48
2023/11/24 09:32:56;;;;;;;1.52;0.30;;;23.60;47.10;24.40;101782.00;;;;5016978;28;20042;-50
2023/11/24 09:35:26;;;;;;;2.22;0.60;;;23.60;47.10;24.40;101787.00;;;;5013559;28;20095;-47
2023/11/24 09:37:52;;;;;;;3.53;0.63;;;23.70;47.00;24.50;101787.00;;;;5014396;28;20525;-48
2023/11/24 09:40:22;;;;;;;1.23;0.10;;;23.70;46.80;24.50;101791.00;;;;5015374;28;20033;-45
2023/11/24 09:43:09;;;;;;;1.65;0.20;;;23.70;46.70;24.60;101795.00;;;;5014516;28;20099;-48
2023/11/24 09:45:35;;;;;;;2.67;0.93;;;23.80;46.60;24.60;101792.00;;;;5015858;28;20650;-57
2023/11/24 09:48:04;;;;;;;6.82;0.50;;;23.80;46.50;24.60;101793.00;;;;5021830;28;20045;-47
2023/11/24 09:50:32;;;;;;;3.17;0.60;;;23.80;46.40;24.60;101802.00;;;;5014732;28;20112;-50
2023/11/24 09:53:01;;;;;;;3.28;0.63;;;23.80;46.40;24.60;101801.00;;;;4998222;28;20111;-49
2023/11/24 09:55:30;;;;;;;3.67;0.95;;;23.90;46.30;24.60;101796.00;;;;5015230;28;20076;-48
2023/11/24 09:57:56;;;;;;;4.13;0.30;;;23.90;46.10;24.60;101794.00;;;;5016451;28;20033;-49
2023/11/24 10:00:25;;;;;;;2.13;0.60;;;23.90;46.00;24.70;101802.00;;;;5014995;28;20064;-48
2023/11/24 10:02:54;;;;;;;6.15;2.08;;;23.90;45.80;24.60;101792.00;;;;5005932;28;20039;-51
2023/11/24 10:05:20;;;;;;;4.18;0.47;;;23.90;45.60;24.60;101790.00;;;;5014865;28;20114;-54
2023/11/24 10:07:50;;;;;;;3.00;0.30;;;23.90;45.50;24.60;101792.00;;;;4996244;28;20053;-53
2023/11/24 10:10:25;;;;;;;7.63;1.08;;;24.00;45.50;24.60;101787.00;;;;5015040;28;20038;-55
2023/11/24 10:12:59;;;;;;;5.53;0.40;;;24.00;45.40;24.70;101779.00;;;;5016440;28;20034;-48
2023/11/24 10:15:26;;;;;;;6.07;0.47;;;24.00;45.30;24.70;101781.00;;;;5014779;28;20099;-48
2023/11/24 10:17:52;;;;;;;3.20;0.50;;;24.00;45.20;24.70;101781.00;;;;5030478;28;20070;-51
2023/11/24 10:20:19;;;;;;;3.05;0.20;;;24.10;45.20;24.70;101769.00;;;;5015137;28;20501;-50
2023/11/24 10:22:52;;;;;;;5.25;0.30;;;24.00;45.00;24.70;101769.00;;;;5015831;28;20102;-49
2023/11/24 10:25:23;;;;;;;3.80;0.20;;;24.10;44.90;24.80;101764.00;;;;5015769;28;20210;-51
2023/11/24 10:28:00;;;;;;;3.83;0.22;;;24.10;44.70;24.80;101761.00;;;;5014022;28;20133;-51
2023/11/24 10:30:26;;;;;;;3.28;0.22;;;24.10;44.60;24.80;101767.00;;;;5014598;28;20054;-53
2023/11/24 10:32:52;;;;;;;2.47;0.32;;;24.10;44.60;24.80;101764.00;;;;5017591;28;20047;-55
2023/11/24 10:35:18;;;;;;;2.83;0.77;;;24.10;44.50;24.80;101755.00;;;;5016133;28;20049;-53
2023/11/24 10:37:48;;;;;;;4.90;0.57;;;24.10;45.10;24.80;101756.00;;;;5014818;28;20120;-49
2023/11/24 10:40:17;;;;;;;5.55;0.63;;;24.10;44.30;24.80;101759.00;;;;5015462;28;20048;-56
2023/11/24 10:42:47;;;;;;;1.38;0.25;;;24.10;44.30;24.80;101750.00;;;;5012159;28;20040;-52
2023/11/24 10:45:20;;;;;;;1.77;0.40;;;24.10;44.20;24.80;101743.00;;;;5017016;28;20033;-50